createdAt,value
2018-12-04T00:00:51.187Z,21.10
2018-12-04T00:03:24.012Z,22.03
2018-12-04T00:05:54.930Z,23.00
2018-12-04T00:08:27.625Z,25.77
2018-12-04T00:11:00.462Z,25.03
2018-12-04T00:13:37.209Z,25.30
2018-12-04T00:16:07.927Z,24.67
2018-12-04T00:18:40.870Z,27.30
2018-12-04T00:21:13.746Z,27.93
2018-12-04T00:23:46.570Z,26.23
2018-12-04T00:28:47.822Z,25.37
2018-12-04T00:31:20.772Z,24.23
2018-12-04T00:33:57.517Z,25.07
2018-12-04T00:36:30.307Z,23.40
2018-12-04T00:39:04.372Z,25.47
2018-12-04T00:41:36.948Z,24.87
2018-12-04T00:44:09.792Z,26.23
2018-12-04T00:46:42.736Z,27.47
2018-12-04T00:49:18.987Z,25.90
2018-12-04T00:51:51.129Z,25.70
2018-12-04T00:54:23.352Z,24.93
2018-12-04T00:56:53.469Z,26.20
2018-12-04T00:59:26.318Z,26.10
2018-12-04T01:01:58.635Z,26.90
2018-12-04T01:04:31.440Z,26.73
2018-12-04T01:07:08.276Z,26.30
2018-12-04T01:09:41.307Z,26.63
2018-12-04T01:12:18.344Z,24.13
2018-12-04T01:14:51.294Z,25.63
2018-12-04T01:17:24.244Z,28.07
2018-12-04T01:19:57.099Z,26.77
2018-12-04T01:22:28.164Z,26.50
2018-12-04T01:25:01.033Z,25.30
2018-12-04T01:45:14.005Z,24.93
2018-12-04T01:47:46.345Z,23.77
2018-12-04T01:50:19.354Z,22.47
2018-12-04T01:52:55.452Z,22.23
2018-12-04T01:55:28.436Z,20.17
2018-12-04T01:58:04.714Z,18.50
2018-12-04T02:00:37.761Z,19.03
2018-12-04T02:03:11.336Z,16.97
2018-12-04T02:05:47.598Z,17.53
2018-12-04T02:08:18.391Z,19.67
2018-12-04T02:10:50.401Z,20.67
2018-12-04T02:13:28.253Z,28.37
2018-12-04T02:16:01.104Z,23.53
2018-12-04T02:18:33.912Z,25.87
2018-12-04T02:21:10.878Z,23.63
2018-12-04T02:23:47.940Z,24.83
2018-12-04T02:26:24.728Z,24.57
2018-12-04T02:28:57.600Z,24.50
2018-12-04T02:31:29.694Z,26.63
2018-12-04T02:34:06.633Z,25.07
2018-12-04T02:36:39.394Z,25.50
2018-12-04T02:39:12.120Z,26.27
2018-12-04T02:41:44.951Z,25.00
2018-12-04T02:49:19.907Z,22.43
2018-12-04T02:51:52.876Z,21.40
2018-12-04T02:54:25.010Z,21.27
2018-12-04T02:56:57.023Z,22.13
2018-12-04T02:59:33.190Z,19.93
2018-12-04T03:02:09.986Z,19.63
2018-12-04T03:04:46.962Z,20.07
2018-12-04T03:07:19.856Z,19.50
2018-12-04T03:09:52.996Z,19.07
2018-12-04T03:12:29.819Z,19.30
2018-12-04T03:15:02.344Z,20.27
2018-12-04T03:17:35.212Z,19.23
2018-12-04T03:20:07.424Z,20.37
2018-12-04T03:22:40.430Z,20.27
2018-12-04T03:25:12.449Z,20.30
2018-12-04T03:27:49.114Z,21.33
2018-12-04T03:30:23.111Z,21.63
2018-12-04T03:32:55.127Z,19.93
2018-12-04T03:35:28.007Z,20.37
2018-12-04T03:38:00.888Z,21.03
2018-12-04T03:40:38.066Z,20.23
2018-12-04T03:43:15.323Z,19.40
2018-12-04T03:45:52.277Z,20.30
2018-12-04T03:48:29.101Z,21.10
2018-12-04T03:53:33.336Z,19.70
2018-12-04T03:56:06.525Z,19.70
2018-12-04T03:58:39.076Z,23.90
2018-12-04T04:01:11.867Z,24.03
2018-12-04T04:03:43.872Z,22.53
2018-12-04T04:06:19.957Z,22.73
2018-12-04T04:08:52.762Z,22.27
2018-12-04T04:11:25.716Z,21.00
2018-12-04T04:13:56.540Z,22.00
2018-12-04T04:16:29.497Z,21.87
2018-12-04T04:19:06.318Z,20.60
2018-12-04T04:21:39.673Z,20.83
2018-12-04T04:24:12.238Z,21.43
2018-12-04T04:26:49.324Z,20.43
2018-12-04T04:29:25.590Z,18.53
2018-12-04T04:31:58.702Z,19.30
2018-12-04T04:34:34.768Z,21.07
2018-12-04T04:37:07.949Z,20.93
2018-12-04T04:39:40.645Z,20.87
2018-12-04T04:42:13.565Z,23.13
2018-12-04T04:44:44.492Z,22.40
2018-12-04T04:47:17.289Z,19.30
2018-12-04T04:49:48.021Z,19.80
2018-12-04T04:52:23.035Z,20.33
2018-12-04T04:55:29.545Z,20.87
2018-12-04T04:58:01.588Z,21.07
2018-12-04T05:00:37.671Z,22.40
2018-12-04T05:03:10.585Z,21.33
2018-12-04T05:05:43.352Z,20.63
2018-12-04T05:08:21.188Z,20.30
2018-12-04T05:10:58.033Z,22.47
2018-12-04T05:13:30.269Z,21.67
2018-12-04T05:16:02.444Z,21.07
2018-12-04T05:18:34.501Z,22.17
2018-12-04T05:21:07.426Z,22.60
2018-12-04T05:23:38.383Z,23.03
2018-12-04T05:26:10.650Z,22.80
2018-12-04T05:28:47.885Z,23.73
2018-12-04T05:31:19.990Z,21.43
2018-12-04T05:33:56.608Z,23.23
2018-12-04T05:36:29.545Z,23.40
2018-12-04T05:39:07.644Z,24.57
2018-12-04T05:41:40.702Z,23.33
2018-12-04T05:44:16.771Z,22.23
2018-12-04T05:46:49.589Z,22.10
2018-12-04T05:49:25.690Z,22.90
2018-12-04T05:51:58.234Z,24.40
2018-12-04T05:54:34.701Z,24.47
2018-12-04T05:57:11.747Z,23.13
2018-12-04T05:59:44.625Z,23.07
2018-12-04T06:02:21.867Z,23.27
2018-12-04T06:04:54.115Z,23.10
2018-12-04T06:07:31.045Z,22.57
2018-12-04T06:10:03.289Z,22.83
2018-12-04T06:12:39.335Z,22.17
2018-12-04T06:15:11.400Z,20.67
2018-12-04T06:17:47.618Z,20.63
2018-12-04T06:20:20.129Z,21.03
2018-12-04T06:22:52.560Z,21.70
2018-12-04T06:25:29.558Z,20.93
2018-12-04T06:28:02.431Z,21.27
2018-12-04T06:30:35.346Z,21.03
2018-12-04T06:33:12.116Z,20.50
2018-12-04T06:35:48.151Z,21.80
2018-12-04T06:38:19.988Z,20.47
2018-12-04T06:40:52.922Z,21.90
2018-12-04T06:43:25.254Z,22.90
2018-12-04T06:45:58.096Z,22.27
2018-12-04T06:48:31.027Z,22.13
2018-12-04T06:51:07.134Z,21.67
2018-12-04T06:53:43.149Z,20.03
2018-12-04T06:58:49.857Z,19.53
2018-12-04T07:01:22.904Z,17.87
2018-12-04T07:03:54.910Z,18.50
2018-12-04T07:06:27.859Z,19.03
2018-12-04T07:08:59.979Z,18.10
2018-12-04T07:11:32.867Z,17.07
2018-12-04T07:14:09.690Z,18.07
2018-12-04T07:16:41.704Z,16.63
2018-12-04T07:19:17.807Z,15.30
2018-12-04T07:21:56.237Z,15.13
2018-12-04T07:24:26.464Z,14.37
2018-12-04T07:27:03.364Z,14.37
2018-12-04T07:29:36.831Z,14.33
2018-12-04T07:32:13.599Z,14.20
2018-12-04T07:34:46.318Z,13.33
2018-12-04T07:37:19.174Z,12.67
2018-12-04T07:39:56.167Z,13.67
2018-12-04T07:42:28.821Z,13.80
2018-12-04T07:45:01.756Z,12.90
2018-12-04T07:47:34.715Z,13.70
2018-12-04T07:50:10.736Z,12.57
2018-12-04T07:52:42.864Z,12.30
2018-12-04T07:55:15.694Z,13.30
2018-12-04T07:57:45.812Z,13.23
2018-12-04T08:00:18.715Z,14.30
2018-12-04T08:02:54.850Z,13.30
2018-12-04T08:05:26.983Z,13.97
2018-12-04T08:08:03.022Z,14.83
2018-12-04T08:10:35.973Z,14.13
2018-12-04T08:13:12.053Z,13.87
2018-12-04T08:15:44.945Z,13.17
2018-12-04T08:18:22.086Z,13.77
2018-12-04T08:20:52.627Z,12.93
2018-12-04T08:23:29.504Z,14.13
2018-12-04T08:26:02.469Z,12.30
2018-12-04T08:28:39.285Z,14.40
2018-12-04T08:31:11.459Z,13.40
2018-12-04T08:33:44.428Z,12.00
2018-12-04T08:36:16.643Z,11.03
2018-12-04T08:38:48.651Z,10.70
2018-12-04T08:41:20.915Z,10.87
2018-12-04T08:43:51.813Z,11.20
2018-12-04T08:46:22.017Z,10.63
2018-12-04T08:48:54.017Z,10.20
2018-12-04T08:51:27.087Z,9.97
2018-12-04T08:54:04.024Z,10.47
2018-12-04T08:56:36.235Z,9.67
2018-12-04T08:59:12.360Z,9.13
2018-12-04T09:01:44.415Z,9.23
2018-12-04T09:04:20.500Z,9.80
2018-12-04T09:06:50.657Z,10.27
2018-12-04T09:09:23.524Z,10.00
2018-12-04T09:11:54.454Z,10.63
2018-12-04T09:14:25.477Z,10.33
2018-12-04T09:16:56.222Z,10.30
2018-12-04T09:19:27.036Z,11.17
2018-12-04T09:21:57.798Z,10.57
2018-12-04T09:24:31.054Z,10.90
2018-12-04T09:27:07.644Z,10.67
2018-12-04T09:29:40.584Z,10.27
2018-12-04T09:32:13.536Z,12.03
2018-12-04T09:34:46.504Z,10.73
2018-12-04T09:37:19.377Z,11.13
2018-12-04T09:39:56.170Z,10.30
2018-12-04T09:42:27.219Z,10.40
2018-12-04T09:44:59.843Z,12.13
2018-12-04T09:47:30.123Z,12.63
2018-12-04T09:50:03.213Z,12.53
2018-12-04T09:52:36.039Z,11.90
2018-12-04T09:55:08.941Z,11.17
2018-12-04T09:57:41.776Z,10.10
2018-12-04T10:00:15.052Z,8.53
2018-12-04T10:02:45.852Z,9.10
2018-12-04T10:05:18.677Z,9.63
2018-12-04T10:07:54.848Z,9.90
2018-12-04T10:10:25.723Z,10.03
2018-12-04T10:12:58.660Z,10.37
2018-12-04T10:15:29.436Z,10.57
2018-12-04T10:18:06.164Z,11.17
2018-12-04T10:20:39.096Z,11.07
2018-12-04T10:23:16.105Z,12.30
2018-12-04T10:25:50.634Z,12.10
2018-12-04T10:28:22.803Z,11.80
2018-12-04T10:30:58.894Z,11.60
2018-12-04T10:33:35.418Z,11.10
2018-12-04T10:36:06.057Z,10.13
2018-12-04T10:38:38.597Z,10.70
2018-12-04T10:41:15.339Z,10.97
2018-12-04T10:43:46.300Z,11.43
2018-12-04T10:46:19.103Z,11.13
2018-12-04T10:48:51.825Z,10.63
2018-12-04T10:51:24.853Z,10.60
2018-12-04T10:53:57.680Z,12.47
2018-12-04T10:56:30.887Z,11.83
2018-12-04T10:59:03.509Z,10.90
2018-12-04T11:01:41.396Z,11.17
2018-12-04T11:04:12.991Z,11.73
2018-12-04T11:06:46.236Z,10.87
2018-12-04T11:09:18.933Z,11.20
2018-12-04T11:11:51.872Z,11.00
2018-12-04T11:14:28.620Z,10.63
2018-12-04T11:17:01.606Z,11.87
2018-12-04T11:19:34.521Z,10.77
2018-12-04T11:22:10.577Z,10.43
2018-12-04T11:24:43.376Z,11.60
2018-12-04T11:27:19.553Z,10.67
2018-12-04T11:29:52.208Z,11.33
2018-12-04T11:32:24.174Z,11.20
2018-12-04T11:34:57.097Z,10.57
2018-12-04T11:37:29.751Z,10.37
2018-12-04T11:40:02.300Z,11.67
2018-12-04T11:42:35.123Z,11.70
2018-12-04T11:45:06.183Z,11.13
2018-12-04T11:47:36.532Z,11.70
2018-12-04T11:50:07.721Z,12.20
2018-12-04T11:52:38.118Z,12.27
2018-12-04T11:55:11.465Z,11.37
2018-12-04T11:57:43.636Z,11.73
2018-12-04T12:00:21.217Z,12.20
2018-12-04T12:02:53.569Z,11.63
2018-12-04T12:05:29.390Z,13.17
2018-12-04T12:10:42.652Z,12.10
2018-12-04T12:13:15.425Z,12.30
2018-12-04T12:15:45.703Z,12.10
2018-12-04T12:18:16.591Z,13.60
2018-12-04T12:20:49.674Z,10.97
2018-12-04T12:23:22.464Z,12.07
2018-12-04T12:25:53.253Z,11.10
2018-12-04T12:28:24.008Z,12.67
2018-12-04T12:30:58.863Z,11.37
2018-12-04T12:33:35.088Z,10.23
2018-12-04T12:36:08.074Z,10.47
2018-12-04T12:38:39.963Z,10.60
2018-12-04T12:41:12.128Z,10.50
2018-12-04T12:43:42.781Z,10.23
2018-12-04T12:46:15.511Z,11.50
2018-12-04T12:48:48.308Z,10.53
2018-12-04T12:51:19.027Z,10.23
2018-12-04T12:53:51.148Z,9.73
2018-12-04T12:56:29.073Z,10.67
2018-12-04T12:59:02.029Z,10.93
2018-12-04T13:01:34.963Z,11.47
2018-12-04T13:04:07.542Z,10.90
2018-12-04T13:06:39.582Z,10.93
2018-12-04T13:09:16.385Z,9.93
2018-12-04T13:11:49.272Z,10.93
2018-12-04T13:14:22.181Z,10.73
2018-12-04T13:16:59.204Z,9.80
2018-12-04T13:19:35.249Z,10.17
2018-12-04T13:22:07.728Z,10.07
2018-12-04T13:24:41.609Z,9.27
2018-12-04T13:27:13.852Z,10.40
2018-12-04T13:29:45.884Z,17.80
2018-12-04T13:32:22.060Z,16.93
2018-12-04T13:34:55.161Z,16.43
2018-12-04T13:37:27.237Z,12.57
2018-12-04T13:40:00.040Z,13.40
2018-12-04T13:42:32.808Z,9.60
2018-12-04T13:45:06.429Z,8.90
2018-12-04T13:47:37.334Z,9.03
2018-12-04T13:50:07.985Z,9.70
2018-12-04T13:52:38.766Z,6.73
2018-12-04T13:55:11.622Z,6.20
2018-12-04T13:57:50.756Z,4.87
2018-12-04T14:00:23.383Z,3.60
2018-12-04T14:02:54.237Z,1.10
2018-12-04T14:05:27.038Z,0.97
2018-12-04T14:07:59.700Z,0.80
2018-12-04T14:10:32.711Z,0.50
2018-12-04T14:13:05.703Z,0.80
2018-12-04T14:18:22.178Z,0.90
2018-12-04T14:20:54.932Z,0.70
2018-12-04T14:23:25.673Z,1.00
2018-12-04T14:26:02.743Z,0.67
2018-12-04T14:28:38.908Z,0.80
2018-12-04T14:31:11.799Z,0.70
2018-12-04T14:33:44.892Z,0.77
2018-12-04T14:36:15.905Z,0.80
2018-12-04T14:38:55.837Z,1.30
2018-12-04T14:41:27.941Z,2.07
2018-12-04T14:44:04.093Z,2.37
2018-12-04T14:46:36.177Z,1.20
2018-12-04T14:49:06.372Z,1.37
2018-12-04T14:51:39.269Z,1.00
2018-12-04T14:54:16.087Z,0.70
2018-12-04T14:56:46.828Z,1.20
2018-12-04T14:59:17.860Z,1.83
2018-12-04T15:01:54.455Z,1.97
2018-12-04T15:04:27.110Z,0.80
2018-12-04T15:07:03.843Z,1.50
2018-12-04T15:09:40.431Z,1.30
2018-12-04T15:12:11.323Z,1.10
2018-12-04T15:14:41.898Z,1.10
2018-12-04T15:17:14.570Z,1.50
2018-12-04T15:19:47.556Z,1.00
2018-12-04T15:22:24.302Z,1.63
2018-12-04T15:24:57.205Z,1.20
2018-12-04T15:27:30.686Z,1.40
2018-12-04T15:30:04.230Z,1.70
2018-12-04T15:32:37.914Z,2.03
2018-12-04T15:35:14.252Z,2.00
2018-12-04T15:37:47.040Z,1.30
2018-12-04T15:40:20.222Z,1.80
2018-12-04T15:42:52.632Z,1.37
2018-12-04T15:45:25.654Z,2.53
2018-12-04T15:47:58.667Z,1.90
2018-12-04T15:50:35.483Z,1.73
2018-12-04T15:53:08.187Z,1.53
2018-12-04T15:55:41.206Z,1.17
2018-12-04T15:58:14.068Z,1.50
2018-12-04T16:00:50.208Z,1.20
2018-12-04T16:03:26.439Z,1.60
2018-12-04T16:06:03.824Z,1.83
2018-12-04T16:08:35.863Z,1.63
2018-12-04T16:11:08.633Z,1.30
2018-12-04T16:13:39.155Z,1.33
2018-12-04T16:16:11.864Z,1.50
2018-12-04T16:18:48.438Z,2.87
2018-12-04T16:21:25.676Z,1.83
2018-12-04T16:23:58.566Z,2.30
2018-12-04T16:26:31.512Z,2.57
2018-12-04T16:29:07.824Z,2.20
2018-12-04T16:31:40.768Z,2.73
2018-12-04T16:34:12.016Z,3.40
2018-12-04T16:36:44.473Z,3.80
2018-12-04T16:39:15.208Z,3.80
2018-12-04T16:41:47.370Z,3.17
2018-12-04T16:44:18.047Z,3.07
2018-12-04T16:46:51.021Z,3.27
2018-12-04T16:49:24.019Z,2.80
2018-12-04T16:52:01.061Z,3.20
2018-12-04T16:54:34.240Z,3.40
2018-12-04T16:57:10.894Z,3.00
2018-12-04T16:59:42.014Z,3.87
2018-12-04T17:02:15.040Z,3.70
2018-12-04T17:04:47.838Z,3.67
2018-12-04T17:07:18.931Z,5.40
2018-12-04T17:09:52.080Z,5.10
2018-12-04T17:12:24.212Z,4.40
2018-12-04T17:15:00.420Z,4.20
2018-12-04T17:17:37.246Z,4.03
2018-12-04T17:20:13.437Z,4.60
2018-12-04T17:22:46.892Z,4.50
2018-12-04T17:25:19.433Z,4.90
2018-12-04T17:27:52.383Z,4.37
2018-12-04T17:30:25.685Z,4.13
2018-12-04T17:32:58.709Z,4.33
2018-12-04T17:35:31.150Z,3.90
2018-12-04T17:38:04.184Z,4.20
2018-12-04T17:40:36.917Z,4.00
2018-12-04T17:43:09.966Z,3.40
2018-12-04T17:45:40.855Z,3.07
2018-12-04T17:48:13.891Z,3.00
2018-12-04T17:50:46.701Z,2.90
2018-12-04T17:53:22.818Z,2.73
2018-12-04T17:56:00.907Z,2.90
2018-12-04T17:58:31.599Z,2.90
2018-12-04T18:01:03.939Z,2.43
2018-12-04T18:03:35.734Z,2.17
2018-12-04T18:06:08.674Z,3.10
2018-12-04T18:08:40.746Z,2.80
2018-12-04T18:11:19.242Z,3.57
2018-12-04T18:13:52.118Z,6.83
2018-12-04T18:16:24.811Z,9.37
2018-12-04T18:18:57.783Z,8.37
2018-12-04T18:21:30.707Z,6.83
2018-12-04T18:24:07.752Z,7.10
2018-12-04T18:26:43.837Z,5.87
2018-12-04T18:29:16.913Z,7.67
2018-12-04T18:31:49.856Z,6.97
2018-12-04T18:34:22.688Z,8.87
2018-12-04T18:37:00.708Z,7.17
2018-12-04T18:39:33.528Z,7.03
2018-12-04T18:42:06.492Z,8.17
2018-12-04T18:44:40.179Z,7.67
2018-12-04T18:47:13.575Z,7.47
2018-12-04T18:49:50.305Z,7.20
2018-12-04T18:52:24.266Z,7.80
2018-12-04T18:55:02.236Z,6.87
2018-12-04T18:57:34.370Z,8.50
2018-12-04T19:00:08.246Z,7.77
2018-12-04T19:02:41.089Z,7.67
2018-12-04T19:05:17.166Z,7.90
2018-12-04T19:07:48.403Z,7.63
2018-12-04T19:10:25.160Z,7.63
2018-12-04T19:13:02.786Z,7.43
2018-12-04T19:15:36.339Z,7.90
2018-12-04T19:18:09.282Z,8.13
2018-12-04T19:20:46.374Z,7.47
2018-12-04T19:23:19.219Z,6.90
2018-12-04T19:25:57.282Z,7.20
2018-12-04T19:31:02.873Z,6.00
2018-12-04T19:36:11.382Z,6.20
2018-12-04T19:38:48.391Z,6.00
2018-12-04T19:41:19.319Z,5.50
2018-12-04T19:43:56.456Z,5.87
2018-12-04T19:46:29.634Z,5.73
2018-12-04T19:49:06.076Z,4.87
2018-12-04T19:51:36.756Z,5.00
2018-12-04T19:54:13.971Z,5.73
2018-12-04T19:56:46.534Z,5.20
2018-12-04T19:59:18.708Z,5.23
2018-12-04T20:01:51.471Z,3.87
2018-12-04T20:04:24.411Z,3.67
2018-12-04T20:06:57.288Z,3.87
2018-12-04T20:09:34.197Z,3.13
2018-12-04T20:12:07.204Z,3.33
2018-12-04T20:14:43.404Z,3.60
2018-12-04T20:17:14.314Z,4.00
2018-12-04T20:19:50.493Z,4.27
2018-12-04T20:22:23.363Z,4.20
2018-12-04T20:24:56.447Z,4.03
2018-12-04T20:27:29.315Z,4.50
2018-12-04T20:30:06.812Z,4.80
2018-12-04T20:32:39.433Z,4.37
2018-12-04T20:35:12.201Z,3.90
2018-12-04T20:42:50.434Z,4.80
2018-12-04T20:45:27.236Z,8.90
2018-12-04T20:48:00.056Z,10.93
2018-12-04T20:50:37.010Z,13.80
2018-12-04T20:53:07.209Z,11.23
2018-12-04T20:55:39.426Z,7.87
2018-12-04T20:58:10.378Z,8.30
2018-12-04T21:00:46.482Z,10.90
2018-12-04T21:03:18.745Z,9.77
2018-12-04T21:05:51.705Z,7.70
2018-12-04T21:08:23.889Z,8.50
2018-12-04T21:10:56.819Z,7.83
2018-12-04T21:13:29.093Z,13.03
2018-12-04T21:16:01.119Z,11.70
2018-12-04T21:18:38.183Z,11.43
2018-12-04T21:21:14.294Z,8.40
2018-12-04T21:23:47.296Z,5.47
2018-12-04T21:26:23.572Z,5.73
2018-12-04T21:29:07.138Z,6.47
2018-12-04T21:31:49.814Z,5.90
2018-12-04T21:34:25.744Z,5.13
2018-12-04T21:37:04.138Z,7.93
2018-12-04T21:39:36.127Z,6.17
2018-12-04T21:42:14.381Z,6.23
2018-12-04T21:59:51.087Z,5.50
2018-12-04T22:02:23.282Z,5.60
2018-12-04T22:05:07.336Z,5.57
2018-12-04T22:07:40.796Z,7.30
2018-12-04T22:10:14.244Z,8.00
2018-12-04T22:12:51.381Z,9.97
2018-12-04T22:15:28.382Z,6.87
2018-12-04T22:18:04.945Z,4.93
2018-12-04T22:20:39.812Z,5.70
2018-12-04T22:23:12.812Z,5.43
2018-12-04T22:25:45.471Z,5.10
2018-12-04T22:28:27.186Z,5.07
2018-12-04T22:31:08.509Z,5.53
2018-12-04T22:33:41.833Z,9.43
2018-12-04T22:36:18.977Z,7.27
2018-12-04T22:38:56.380Z,6.40
2018-12-04T22:41:29.582Z,7.10
2018-12-04T22:44:02.179Z,4.50
2018-12-04T22:46:35.167Z,4.90
2018-12-04T22:49:07.972Z,5.37
2018-12-04T22:51:40.895Z,4.67
2018-12-04T22:54:18.824Z,4.90
2018-12-04T22:56:51.681Z,5.07
2018-12-04T22:59:24.406Z,5.13
2018-12-04T23:09:34.171Z,3.77
2018-12-04T23:12:06.672Z,4.10
2018-12-04T23:14:42.909Z,4.33
2018-12-04T23:17:19.149Z,3.90
2018-12-04T23:19:55.240Z,3.57
2018-12-04T23:22:28.199Z,4.20
2018-12-04T23:25:00.911Z,3.80
2018-12-04T23:27:33.176Z,3.60
2018-12-04T23:30:07.559Z,3.40
2018-12-04T23:32:38.140Z,3.83
2018-12-04T23:38:41.621Z,3.03
2018-12-04T23:41:17.644Z,3.07
2018-12-04T23:43:50.441Z,3.40
2018-12-04T23:46:23.459Z,3.07
2018-12-04T23:48:55.591Z,2.90
2018-12-04T23:51:31.870Z,3.30
2018-12-04T23:54:04.797Z,3.40
2018-12-04T23:56:41.632Z,3.00
2018-12-04T23:59:14.540Z,3.50
